sensor_id;sensor_type;location;lat;lon;timestamp;P1;durP1;ratioP1;P2;durP2;ratioP2
64994;SDS011;51543;52.254;10.512;2022-07-11T00:01:03;3.20;;;2.00;;
64994;SDS011;51543;52.254;10.512;2022-07-11T00:03:29;3.90;;;1.85;;
64994;SDS011;51543;52.254;10.512;2022-07-11T00:05:54;1.65;;;1.33;;
64994;SDS011;51543;52.254;10.512;2022-07-11T00:08:19;1.98;;;1.55;;
64994;SDS011;51543;52.254;10.512;2022-07-11T00:10:44;3.63;;;1.70;;
64994;SDS011;51543;52.254;10.512;2022-07-11T00:13:11;3.25;;;1.75;;
64994;SDS011;51543;52.254;10.512;2022-07-11T00:15:37;4.05;;;1.63;;
64994;SDS011;51543;52.254;10.512;2022-07-11T00:18:02;5.85;;;1.88;;
64994;SDS011;51543;52.254;10.512;2022-07-11T00:20:27;5.00;;;1.95;;
64994;SDS011;51543;52.254;10.512;2022-07-11T00:22:52;2.28;;;1.67;;
64994;SDS011;51543;52.254;10.512;2022-07-11T00:25:18;5.10;;;2.30;;
64994;SDS011;51543;52.254;10.512;2022-07-11T00:27:43;3.35;;;1.80;;
64994;SDS011;51543;52.254;10.512;2022-07-11T00:30:08;4.72;;;2.00;;
64994;SDS011;51543;52.254;10.512;2022-07-11T00:32:34;2.03;;;1.40;;
64994;SDS011;51543;52.254;10.512;2022-07-11T00:34:59;1.73;;;1.20;;
64994;SDS011;51543;52.254;10.512;2022-07-11T00:37:24;6.13;;;2.00;;
64994;SDS011;51543;52.254;10.512;2022-07-11T00:39:49;1.48;;;1.10;;
64994;SDS011;51543;52.254;10.512;2022-07-11T00:42:17;3.22;;;1.70;;
64994;SDS011;51543;52.254;10.512;2022-07-11T00:44:43;2.78;;;1.50;;
64994;SDS011;51543;52.254;10.512;2022-07-11T00:47:08;4.45;;;2.30;;
64994;SDS011;51543;52.254;10.512;2022-07-11T00:49:33;3.47;;;1.70;;
64994;SDS011;51543;52.254;10.512;2022-07-11T00:51:58;3.45;;;1.30;;
64994;SDS011;51543;52.254;10.512;2022-07-11T00:54:24;1.52;;;1.42;;
64994;SDS011;51543;52.254;10.512;2022-07-11T00:56:50;1.33;;;1.10;;
64994;SDS011;51543;52.254;10.512;2022-07-11T00:59:16;3.78;;;1.80;;
64994;SDS011;51543;52.254;10.512;2022-07-11T01:01:42;2.63;;;1.60;;
64994;SDS011;51543;52.254;10.512;2022-07-11T01:04:08;4.75;;;1.80;;
64994;SDS011;51543;52.254;10.512;2022-07-11T01:06:33;2.22;;;1.58;;
64994;SDS011;51543;52.254;10.512;2022-07-11T01:08:58;3.53;;;1.77;;
64994;SDS011;51543;52.254;10.512;2022-07-11T01:11:24;4.07;;;1.80;;
64994;SDS011;51543;52.254;10.512;2022-07-11T01:13:51;2.30;;;1.30;;
64994;SDS011;51543;52.254;10.512;2022-07-11T01:16:17;1.20;;;1.08;;
64994;SDS011;51543;52.254;10.512;2022-07-11T01:18:43;3.95;;;1.55;;
64994;SDS011;51543;52.254;10.512;2022-07-11T01:23:50;3.25;;;1.50;;
64994;SDS011;51543;52.254;10.512;2022-07-11T01:26:15;3.05;;;1.70;;
64994;SDS011;51543;52.254;10.512;2022-07-11T01:28:41;2.25;;;1.40;;
64994;SDS011;51543;52.254;10.512;2022-07-11T01:31:06;2.08;;;1.52;;
64994;SDS011;51543;52.254;10.512;2022-07-11T01:33:32;2.78;;;1.60;;
64994;SDS011;51543;52.254;10.512;2022-07-11T01:35:59;2.00;;;1.17;;
64994;SDS011;51543;52.254;10.512;2022-07-11T01:38:24;2.88;;;1.58;;
64994;SDS011;51543;52.254;10.512;2022-07-11T01:40:49;4.47;;;2.45;;
64994;SDS011;51543;52.254;10.512;2022-07-11T01:43:14;1.25;;;1.15;;
64994;SDS011;51543;52.254;10.512;2022-07-11T01:45:40;1.85;;;1.63;;
64994;SDS011;51543;52.254;10.512;2022-07-11T01:48:05;2.45;;;1.50;;
64994;SDS011;51543;52.254;10.512;2022-07-11T01:50:30;2.08;;;1.63;;
64994;SDS011;51543;52.254;10.512;2022-07-11T01:52:56;1.77;;;1.63;;
64994;SDS011;51543;52.254;10.512;2022-07-11T01:55:21;5.35;;;1.70;;
64994;SDS011;51543;52.254;10.512;2022-07-11T01:57:46;1.73;;;1.63;;
64994;SDS011;51543;52.254;10.512;2022-07-11T02:00:12;1.50;;;1.10;;
64994;SDS011;51543;52.254;10.512;2022-07-11T02:02:43;4.57;;;1.70;;
64994;SDS011;51543;52.254;10.512;2022-07-11T02:05:09;3.10;;;1.70;;
64994;SDS011;51543;52.254;10.512;2022-07-11T02:07:34;2.25;;;1.60;;
64994;SDS011;51543;52.254;10.512;2022-07-11T02:10:25;2.33;;;1.25;;
64994;SDS011;51543;52.254;10.512;2022-07-11T02:12:55;3.30;;;1.50;;
64994;SDS011;51543;52.254;10.512;2022-07-11T02:15:20;2.75;;;1.70;;
64994;SDS011;51543;52.254;10.512;2022-07-11T02:17:45;3.90;;;1.88;;
64994;SDS011;51543;52.254;10.512;2022-07-11T02:20:11;4.07;;;1.80;;
64994;SDS011;51543;52.254;10.512;2022-07-11T02:22:36;2.45;;;1.52;;
64994;SDS011;51543;52.254;10.512;2022-07-11T02:25:01;3.45;;;1.73;;
64994;SDS011;51543;52.254;10.512;2022-07-11T02:27:27;2.22;;;1.98;;
64994;SDS011;51543;52.254;10.512;2022-07-11T02:29:52;4.18;;;2.00;;
64994;SDS011;51543;52.254;10.512;2022-07-11T02:32:17;2.05;;;1.85;;
64994;SDS011;51543;52.254;10.512;2022-07-11T02:34:42;3.03;;;1.90;;
64994;SDS011;51543;52.254;10.512;2022-07-11T02:37:08;5.43;;;2.17;;
64994;SDS011;51543;52.254;10.512;2022-07-11T02:39:33;5.10;;;2.25;;
64994;SDS011;51543;52.254;10.512;2022-07-11T02:41:58;1.85;;;1.70;;
64994;SDS011;51543;52.254;10.512;2022-07-11T02:44:23;4.88;;;2.60;;
64994;SDS011;51543;52.254;10.512;2022-07-11T02:46:49;2.42;;;1.73;;
64994;SDS011;51543;52.254;10.512;2022-07-11T02:49:14;4.53;;;2.20;;
64994;SDS011;51543;52.254;10.512;2022-07-11T02:51:39;5.35;;;2.40;;
64994;SDS011;51543;52.254;10.512;2022-07-11T02:54:05;4.28;;;1.55;;
64994;SDS011;51543;52.254;10.512;2022-07-11T02:56:30;2.60;;;1.70;;
64994;SDS011;51543;52.254;10.512;2022-07-11T02:58:55;2.80;;;2.00;;
64994;SDS011;51543;52.254;10.512;2022-07-11T03:01:20;2.63;;;1.85;;
64994;SDS011;51543;52.254;10.512;2022-07-11T03:03:46;1.88;;;1.27;;
64994;SDS011;51543;52.254;10.512;2022-07-11T03:06:11;4.25;;;2.13;;
64994;SDS011;51543;52.254;10.512;2022-07-11T03:08:36;2.05;;;1.70;;
64994;SDS011;51543;52.254;10.512;2022-07-11T03:11:01;2.08;;;1.75;;
64994;SDS011;51543;52.254;10.512;2022-07-11T03:13:27;4.57;;;2.20;;
64994;SDS011;51543;52.254;10.512;2022-07-11T03:15:52;2.92;;;2.13;;
64994;SDS011;51543;52.254;10.512;2022-07-11T03:18:17;3.50;;;1.88;;
64994;SDS011;51543;52.254;10.512;2022-07-11T03:20:42;2.25;;;1.77;;
64994;SDS011;51543;52.254;10.512;2022-07-11T03:23:08;4.35;;;2.42;;
64994;SDS011;51543;52.254;10.512;2022-07-11T03:25:33;3.80;;;2.33;;
64994;SDS011;51543;52.254;10.512;2022-07-11T03:27:58;3.55;;;1.80;;
64994;SDS011;51543;52.254;10.512;2022-07-11T03:30:23;6.47;;;2.20;;
64994;SDS011;51543;52.254;10.512;2022-07-11T03:32:49;6.53;;;2.25;;
64994;SDS011;51543;52.254;10.512;2022-07-11T03:35:14;6.95;;;2.33;;
64994;SDS011;51543;52.254;10.512;2022-07-11T03:37:58;6.97;;;2.20;;
64994;SDS011;51543;52.254;10.512;2022-07-11T03:40:23;3.45;;;2.00;;
64994;SDS011;51543;52.254;10.512;2022-07-11T03:42:48;4.38;;;2.20;;
64994;SDS011;51543;52.254;10.512;2022-07-11T03:45:14;4.68;;;2.20;;
64994;SDS011;51543;52.254;10.512;2022-07-11T03:47:39;2.88;;;2.00;;
64994;SDS011;51543;52.254;10.512;2022-07-11T03:50:04;6.70;;;2.17;;
64994;SDS011;51543;52.254;10.512;2022-07-11T03:52:30;2.75;;;2.08;;
64994;SDS011;51543;52.254;10.512;2022-07-11T03:54:55;4.20;;;2.10;;
64994;SDS011;51543;52.254;10.512;2022-07-11T03:57:20;4.50;;;2.05;;
64994;SDS011;51543;52.254;10.512;2022-07-11T03:59:45;5.47;;;1.90;;
64994;SDS011;51543;52.254;10.512;2022-07-11T04:02:11;3.85;;;1.95;;
64994;SDS011;51543;52.254;10.512;2022-07-11T04:04:36;4.65;;;2.03;;
64994;SDS011;51543;52.254;10.512;2022-07-11T04:07:01;4.80;;;1.92;;
64994;SDS011;51543;52.254;10.512;2022-07-11T04:09:26;2.05;;;1.65;;
64994;SDS011;51543;52.254;10.512;2022-07-11T04:11:51;4.78;;;2.20;;
64994;SDS011;51543;52.254;10.512;2022-07-11T04:14:17;4.40;;;2.13;;
64994;SDS011;51543;52.254;10.512;2022-07-11T04:16:42;5.22;;;1.95;;
64994;SDS011;51543;52.254;10.512;2022-07-11T04:19:07;2.22;;;2.03;;
64994;SDS011;51543;52.254;10.512;2022-07-11T04:21:32;2.08;;;1.65;;
64994;SDS011;51543;52.254;10.512;2022-07-11T04:23:58;2.92;;;2.00;;
64994;SDS011;51543;52.254;10.512;2022-07-11T04:26:23;2.60;;;2.40;;
64994;SDS011;51543;52.254;10.512;2022-07-11T04:28:48;3.95;;;2.20;;
64994;SDS011;51543;52.254;10.512;2022-07-11T04:31:13;3.33;;;2.20;;
64994;SDS011;51543;52.254;10.512;2022-07-11T04:33:39;4.65;;;2.10;;
64994;SDS011;51543;52.254;10.512;2022-07-11T04:36:04;2.40;;;2.20;;
64994;SDS011;51543;52.254;10.512;2022-07-11T04:38:29;3.65;;;2.10;;
64994;SDS011;51543;52.254;10.512;2022-07-11T04:40:55;2.22;;;1.65;;
64994;SDS011;51543;52.254;10.512;2022-07-11T04:43:20;2.50;;;2.03;;
64994;SDS011;51543;52.254;10.512;2022-07-11T04:45:45;4.60;;;2.30;;
64994;SDS011;51543;52.254;10.512;2022-07-11T04:48:10;4.15;;;2.60;;
64994;SDS011;51543;52.254;10.512;2022-07-11T04:50:36;4.10;;;2.83;;
64994;SDS011;51543;52.254;10.512;2022-07-11T04:53:01;6.63;;;3.35;;
64994;SDS011;51543;52.254;10.512;2022-07-11T04:55:26;3.53;;;2.38;;
64994;SDS011;51543;52.254;10.512;2022-07-11T04:57:51;7.90;;;3.40;;
64994;SDS011;51543;52.254;10.512;2022-07-11T05:00:17;11.40;;;3.40;;
64994;SDS011;51543;52.254;10.512;2022-07-11T05:02:43;2.30;;;2.10;;
64994;SDS011;51543;52.254;10.512;2022-07-11T05:05:08;4.85;;;2.78;;
64994;SDS011;51543;52.254;10.512;2022-07-11T05:07:34;2.53;;;2.33;;
64994;SDS011;51543;52.254;10.512;2022-07-11T05:09:59;4.90;;;2.90;;
64994;SDS011;51543;52.254;10.512;2022-07-11T05:12:24;5.68;;;2.75;;
64994;SDS011;51543;52.254;10.512;2022-07-11T05:14:49;6.53;;;3.38;;
64994;SDS011;51543;52.254;10.512;2022-07-11T05:17:15;3.72;;;2.53;;
64994;SDS011;51543;52.254;10.512;2022-07-11T05:19:40;3.75;;;2.80;;
64994;SDS011;51543;52.254;10.512;2022-07-11T05:22:05;3.42;;;3.00;;
64994;SDS011;51543;52.254;10.512;2022-07-11T05:24:31;9.18;;;3.60;;
64994;SDS011;51543;52.254;10.512;2022-07-11T05:26:56;3.60;;;2.90;;
64994;SDS011;51543;52.254;10.512;2022-07-11T05:29:21;4.22;;;2.65;;
64994;SDS011;51543;52.254;10.512;2022-07-11T05:31:47;9.02;;;3.60;;
64994;SDS011;51543;52.254;10.512;2022-07-11T05:34:16;6.13;;;3.58;;
64994;SDS011;51543;52.254;10.512;2022-07-11T05:36:41;4.68;;;3.03;;
64994;SDS011;51543;52.254;10.512;2022-07-11T05:39:08;5.85;;;2.90;;
64994;SDS011;51543;52.254;10.512;2022-07-11T05:41:33;7.82;;;3.55;;
64994;SDS011;51543;52.254;10.512;2022-07-11T05:43:58;7.25;;;3.55;;
64994;SDS011;51543;52.254;10.512;2022-07-11T05:46:24;4.55;;;3.40;;
64994;SDS011;51543;52.254;10.512;2022-07-11T05:48:49;3.83;;;3.00;;
64994;SDS011;51543;52.254;10.512;2022-07-11T05:51:14;4.18;;;2.05;;
64994;SDS011;51543;52.254;10.512;2022-07-11T05:53:41;3.70;;;2.08;;
64994;SDS011;51543;52.254;10.512;2022-07-11T05:56:06;4.57;;;2.70;;
64994;SDS011;51543;52.254;10.512;2022-07-11T05:58:32;4.88;;;3.00;;
64994;SDS011;51543;52.254;10.512;2022-07-11T06:00:58;4.18;;;2.50;;
64994;SDS011;51543;52.254;10.512;2022-07-11T06:03:23;3.13;;;2.20;;
64994;SDS011;51543;52.254;10.512;2022-07-11T06:05:48;5.60;;;2.00;;
64994;SDS011;51543;52.254;10.512;2022-07-11T06:08:14;2.13;;;1.60;;
64994;SDS011;51543;52.254;10.512;2022-07-11T06:10:58;2.45;;;2.20;;
64994;SDS011;51543;52.254;10.512;2022-07-11T06:13:23;4.00;;;2.30;;
64994;SDS011;51543;52.254;10.512;2022-07-11T06:15:49;3.92;;;2.30;;
64994;SDS011;51543;52.254;10.512;2022-07-11T06:18:14;3.65;;;2.40;;
64994;SDS011;51543;52.254;10.512;2022-07-11T06:20:39;2.72;;;2.40;;
64994;SDS011;51543;52.254;10.512;2022-07-11T06:23:04;4.43;;;2.35;;
64994;SDS011;51543;52.254;10.512;2022-07-11T06:25:31;7.30;;;2.60;;
64994;SDS011;51543;52.254;10.512;2022-07-11T06:27:56;4.50;;;2.63;;
64994;SDS011;51543;52.254;10.512;2022-07-11T06:30:22;2.15;;;1.95;;
64994;SDS011;51543;52.254;10.512;2022-07-11T06:32:47;2.30;;;2.10;;
64994;SDS011;51543;52.254;10.512;2022-07-11T06:35:12;5.80;;;2.50;;
64994;SDS011;51543;52.254;10.512;2022-07-11T06:37:37;3.20;;;2.15;;
64994;SDS011;51543;52.254;10.512;2022-07-11T06:40:03;5.18;;;2.60;;
64994;SDS011;51543;52.254;10.512;2022-07-11T06:42:34;2.55;;;2.20;;
64994;SDS011;51543;52.254;10.512;2022-07-11T06:45:00;3.30;;;2.10;;
64994;SDS011;51543;52.254;10.512;2022-07-11T06:47:25;2.70;;;1.80;;
64994;SDS011;51543;52.254;10.512;2022-07-11T06:49:50;3.70;;;2.15;;
64994;SDS011;51543;52.254;10.512;2022-07-11T06:52:15;2.55;;;1.90;;
64994;SDS011;51543;52.254;10.512;2022-07-11T06:54:41;3.17;;;1.80;;
64994;SDS011;51543;52.254;10.512;2022-07-11T06:57:06;1.85;;;1.48;;
64994;SDS011;51543;52.254;10.512;2022-07-11T06:59:32;2.03;;;1.90;;
64994;SDS011;51543;52.254;10.512;2022-07-11T07:01:57;0.95;;;0.95;;
64994;SDS011;51543;52.254;10.512;2022-07-11T07:04:23;5.32;;;2.03;;
64994;SDS011;51543;52.254;10.512;2022-07-11T07:06:49;5.45;;;1.73;;
64994;SDS011;51543;52.254;10.512;2022-07-11T07:09:14;2.95;;;1.70;;
64994;SDS011;51543;52.254;10.512;2022-07-11T07:11:40;4.05;;;2.33;;
64994;SDS011;51543;52.254;10.512;2022-07-11T07:14:05;2.47;;;1.90;;
64994;SDS011;51543;52.254;10.512;2022-07-11T07:16:30;1.70;;;1.60;;
64994;SDS011;51543;52.254;10.512;2022-07-11T07:18:55;2.13;;;1.60;;
64994;SDS011;51543;52.254;10.512;2022-07-11T07:21:20;3.10;;;1.80;;
64994;SDS011;51543;52.254;10.512;2022-07-11T07:23:46;2.60;;;1.90;;
64994;SDS011;51543;52.254;10.512;2022-07-11T07:26:11;2.80;;;1.30;;
64994;SDS011;51543;52.254;10.512;2022-07-11T07:28:36;1.63;;;1.52;;
64994;SDS011;51543;52.254;10.512;2022-07-11T07:31:03;4.97;;;1.60;;
64994;SDS011;51543;52.254;10.512;2022-07-11T07:33:29;3.10;;;1.40;;
64994;SDS011;51543;52.254;10.512;2022-07-11T07:35:54;1.77;;;1.60;;
64994;SDS011;51543;52.254;10.512;2022-07-11T07:38:20;2.22;;;1.73;;
64994;SDS011;51543;52.254;10.512;2022-07-11T07:40:45;1.30;;;1.20;;
64994;SDS011;51543;52.254;10.512;2022-07-11T07:43:11;2.08;;;1.70;;
64994;SDS011;51543;52.254;10.512;2022-07-11T07:45:37;3.63;;;2.03;;
64994;SDS011;51543;52.254;10.512;2022-07-11T07:48:04;4.00;;;2.13;;
64994;SDS011;51543;52.254;10.512;2022-07-11T07:50:29;2.90;;;1.60;;
64994;SDS011;51543;52.254;10.512;2022-07-11T07:52:54;2.80;;;1.60;;
64994;SDS011;51543;52.254;10.512;2022-07-11T07:55:20;1.00;;;0.90;;
64994;SDS011;51543;52.254;10.512;2022-07-11T07:57:45;2.65;;;1.52;;
64994;SDS011;51543;52.254;10.512;2022-07-11T08:00:10;1.48;;;1.33;;
64994;SDS011;51543;52.254;10.512;2022-07-11T08:02:54;2.30;;;1.75;;
64994;SDS011;51543;52.254;10.512;2022-07-11T08:05:20;1.48;;;1.38;;
64994;SDS011;51543;52.254;10.512;2022-07-11T08:07:45;1.35;;;1.25;;
64994;SDS011;51543;52.254;10.512;2022-07-11T08:10:11;3.28;;;1.70;;
64994;SDS011;51543;52.254;10.512;2022-07-11T08:12:36;1.95;;;1.17;;
64994;SDS011;51543;52.254;10.512;2022-07-11T08:15:02;2.10;;;1.88;;
64994;SDS011;51543;52.254;10.512;2022-07-11T08:17:27;4.45;;;1.73;;
64994;SDS011;51543;52.254;10.512;2022-07-11T08:19:53;7.30;;;1.92;;
64994;SDS011;51543;52.254;10.512;2022-07-11T08:22:18;7.35;;;2.78;;
64994;SDS011;51543;52.254;10.512;2022-07-11T08:24:43;1.30;;;1.20;;
64994;SDS011;51543;52.254;10.512;2022-07-11T08:27:09;4.47;;;1.75;;
64994;SDS011;51543;52.254;10.512;2022-07-11T08:29:34;2.42;;;1.20;;
64994;SDS011;51543;52.254;10.512;2022-07-11T08:32:00;1.77;;;1.30;;
64994;SDS011;51543;52.254;10.512;2022-07-11T08:34:25;2.28;;;1.70;;
64994;SDS011;51543;52.254;10.512;2022-07-11T08:36:50;2.65;;;1.80;;
64994;SDS011;51543;52.254;10.512;2022-07-11T08:39:16;3.53;;;1.88;;
64994;SDS011;51543;52.254;10.512;2022-07-11T08:41:44;1.70;;;1.17;;
64994;SDS011;51543;52.254;10.512;2022-07-11T08:44:13;1.38;;;1.27;;
64994;SDS011;51543;52.254;10.512;2022-07-11T08:46:39;1.58;;;1.42;;
64994;SDS011;51543;52.254;10.512;2022-07-11T08:49:08;2.63;;;1.67;;
64994;SDS011;51543;52.254;10.512;2022-07-11T08:51:38;2.67;;;1.42;;
64994;SDS011;51543;52.254;10.512;2022-07-11T08:54:04;2.55;;;1.70;;
64994;SDS011;51543;52.254;10.512;2022-07-11T08:56:35;1.60;;;1.50;;
64994;SDS011;51543;52.254;10.512;2022-07-11T08:59:02;1.77;;;1.67;;
64994;SDS011;51543;52.254;10.512;2022-07-11T09:01:31;2.15;;;1.83;;
64994;SDS011;51543;52.254;10.512;2022-07-11T09:03:57;1.50;;;1.40;;
64994;SDS011;51543;52.254;10.512;2022-07-11T09:06:22;2.30;;;1.67;;
64994;SDS011;51543;52.254;10.512;2022-07-11T09:08:47;3.58;;;1.75;;
64994;SDS011;51543;52.254;10.512;2022-07-11T09:11:13;2.40;;;2.20;;
64994;SDS011;51543;52.254;10.512;2022-07-11T09:13:38;1.50;;;1.40;;
64994;SDS011;51543;52.254;10.512;2022-07-11T09:16:04;2.42;;;1.30;;
64994;SDS011;51543;52.254;10.512;2022-07-11T09:18:31;3.13;;;1.52;;
64994;SDS011;51543;52.254;10.512;2022-07-11T09:21:00;2.55;;;1.90;;
64994;SDS011;51543;52.254;10.512;2022-07-11T09:23:45;3.47;;;1.90;;
64994;SDS011;51543;52.254;10.512;2022-07-11T09:26:32;2.53;;;1.63;;
64994;SDS011;51543;52.254;10.512;2022-07-11T09:29:05;1.85;;;1.20;;
64994;SDS011;51543;52.254;10.512;2022-07-11T09:31:32;1.48;;;1.38;;
64994;SDS011;51543;52.254;10.512;2022-07-11T09:33:58;1.30;;;1.20;;
64994;SDS011;51543;52.254;10.512;2022-07-11T09:39:18;2.15;;;1.50;;
64994;SDS011;51543;52.254;10.512;2022-07-11T09:41:44;2.42;;;1.25;;
64994;SDS011;51543;52.254;10.512;2022-07-11T09:44:18;0.88;;;0.88;;
64994;SDS011;51543;52.254;10.512;2022-07-11T09:46:48;1.90;;;1.25;;
64994;SDS011;51543;52.254;10.512;2022-07-11T09:49:14;0.90;;;0.90;;
64994;SDS011;51543;52.254;10.512;2022-07-11T09:51:40;1.40;;;1.17;;
64994;SDS011;51543;52.254;10.512;2022-07-11T09:54:06;1.40;;;1.30;;
64994;SDS011;51543;52.254;10.512;2022-07-11T09:56:37;2.58;;;1.20;;
64994;SDS011;51543;52.254;10.512;2022-07-11T09:59:04;0.68;;;0.68;;
64994;SDS011;51543;52.254;10.512;2022-07-11T10:01:30;0.90;;;0.90;;
64994;SDS011;51543;52.254;10.512;2022-07-11T10:03:55;0.90;;;0.90;;
64994;SDS011;51543;52.254;10.512;2022-07-11T10:06:21;1.10;;;1.00;;
64994;SDS011;51543;52.254;10.512;2022-07-11T10:08:47;1.85;;;1.00;;
64994;SDS011;51543;52.254;10.512;2022-07-11T10:11:12;1.10;;;1.00;;
64994;SDS011;51543;52.254;10.512;2022-07-11T10:13:38;1.08;;;0.95;;
64994;SDS011;51543;52.254;10.512;2022-07-11T10:16:06;2.70;;;0.90;;
64994;SDS011;51543;52.254;10.512;2022-07-11T10:18:35;1.23;;;0.90;;
64994;SDS011;51543;52.254;10.512;2022-07-11T10:21:22;1.30;;;1.20;;
64994;SDS011;51543;52.254;10.512;2022-07-11T10:23:52;2.42;;;1.50;;
64994;SDS011;51543;52.254;10.512;2022-07-11T10:29:07;1.70;;;1.10;;
64994;SDS011;51543;52.254;10.512;2022-07-11T10:31:34;2.45;;;1.63;;
64994;SDS011;51543;52.254;10.512;2022-07-11T10:34:01;1.92;;;1.20;;
64994;SDS011;51543;52.254;10.512;2022-07-11T10:36:27;4.20;;;1.30;;
64994;SDS011;51543;52.254;10.512;2022-07-11T10:41:38;1.70;;;1.35;;
64994;SDS011;51543;52.254;10.512;2022-07-11T10:44:03;3.38;;;1.50;;
64994;SDS011;51543;52.254;10.512;2022-07-11T10:46:29;1.70;;;1.40;;
64994;SDS011;51543;52.254;10.512;2022-07-11T10:55:01;1.88;;;1.30;;
64994;SDS011;51543;52.254;10.512;2022-07-11T11:00:00;3.63;;;1.50;;
64994;SDS011;51543;52.254;10.512;2022-07-11T11:02:26;1.20;;;1.10;;
64994;SDS011;51543;52.254;10.512;2022-07-11T11:04:52;2.53;;;1.10;;
64994;SDS011;51543;52.254;10.512;2022-07-11T11:09:53;1.05;;;1.05;;
64994;SDS011;51543;52.254;10.512;2022-07-11T11:12:18;1.45;;;1.15;;
64994;SDS011;51543;52.254;10.512;2022-07-11T11:14:43;2.53;;;1.23;;
64994;SDS011;51543;52.254;10.512;2022-07-11T11:17:33;1.88;;;1.05;;
64994;SDS011;51543;52.254;10.512;2022-07-11T11:19:59;1.25;;;1.15;;
64994;SDS011;51543;52.254;10.512;2022-07-11T11:22:24;0.77;;;0.77;;
64994;SDS011;51543;52.254;10.512;2022-07-11T11:24:53;0.57;;;0.57;;
64994;SDS011;51543;52.254;10.512;2022-07-11T11:27:19;2.10;;;1.30;;
64994;SDS011;51543;52.254;10.512;2022-07-11T11:29:47;0.98;;;0.98;;
64994;SDS011;51543;52.254;10.512;2022-07-11T11:32:12;2.05;;;0.90;;
64994;SDS011;51543;52.254;10.512;2022-07-11T11:34:39;0.80;;;0.80;;
64994;SDS011;51543;52.254;10.512;2022-07-11T11:37:05;0.68;;;0.68;;
64994;SDS011;51543;52.254;10.512;2022-07-11T11:39:34;0.77;;;0.77;;
64994;SDS011;51543;52.254;10.512;2022-07-11T11:42:00;1.17;;;0.85;;
64994;SDS011;51543;52.254;10.512;2022-07-11T11:44:26;0.80;;;0.80;;
64994;SDS011;51543;52.254;10.512;2022-07-11T11:46:51;1.15;;;0.80;;
64994;SDS011;51543;52.254;10.512;2022-07-11T11:49:17;1.60;;;1.13;;
64994;SDS011;51543;52.254;10.512;2022-07-11T11:51:43;0.80;;;0.80;;
64994;SDS011;51543;52.254;10.512;2022-07-11T11:54:09;0.60;;;0.60;;
64994;SDS011;51543;52.254;10.512;2022-07-11T11:56:35;0.90;;;0.82;;
64994;SDS011;51543;52.254;10.512;2022-07-11T11:59:02;0.73;;;0.73;;
64994;SDS011;51543;52.254;10.512;2022-07-11T12:01:28;2.70;;;0.90;;
64994;SDS011;51543;52.254;10.512;2022-07-11T12:04:01;1.05;;;0.90;;
64994;SDS011;51543;52.254;10.512;2022-07-11T12:06:29;0.70;;;0.70;;
64994;SDS011;51543;52.254;10.512;2022-07-11T12:09:02;1.23;;;1.10;;
64994;SDS011;51543;52.254;10.512;2022-07-11T12:11:28;0.68;;;0.68;;
64994;SDS011;51543;52.254;10.512;2022-07-11T12:14:02;4.55;;;0.80;;
64994;SDS011;51543;52.254;10.512;2022-07-11T12:16:27;2.53;;;0.90;;
64994;SDS011;51543;52.254;10.512;2022-07-11T12:21:43;0.50;;;0.50;;
64994;SDS011;51543;52.254;10.512;2022-07-11T12:24:10;0.98;;;0.80;;
64994;SDS011;51543;52.254;10.512;2022-07-11T12:26:36;0.70;;;0.70;;
64994;SDS011;51543;52.254;10.512;2022-07-11T12:29:03;0.65;;;0.65;;
64994;SDS011;51543;52.254;10.512;2022-07-11T12:34:06;0.68;;;0.68;;
64994;SDS011;51543;52.254;10.512;2022-07-11T12:36:32;0.90;;;0.90;;
64994;SDS011;51543;52.254;10.512;2022-07-11T12:38:57;0.75;;;0.75;;
64994;SDS011;51543;52.254;10.512;2022-07-11T12:41:23;0.90;;;0.80;;
64994;SDS011;51543;52.254;10.512;2022-07-11T12:43:51;0.88;;;0.80;;
64994;SDS011;51543;52.254;10.512;2022-07-11T12:46:37;1.35;;;1.00;;
64994;SDS011;51543;52.254;10.512;2022-07-11T12:49:03;0.90;;;0.90;;
64994;SDS011;51543;52.254;10.512;2022-07-11T12:51:30;0.80;;;0.80;;
64994;SDS011;51543;52.254;10.512;2022-07-11T12:53:59;1.90;;;0.90;;
64994;SDS011;51543;52.254;10.512;2022-07-11T12:56:24;0.82;;;0.75;;
64994;SDS011;51543;52.254;10.512;2022-07-11T12:58:50;1.42;;;0.60;;
64994;SDS011;51543;52.254;10.512;2022-07-11T13:01:15;3.72;;;0.90;;
64994;SDS011;51543;52.254;10.512;2022-07-11T13:03:40;1.08;;;0.95;;
64994;SDS011;51543;52.254;10.512;2022-07-11T13:06:06;1.20;;;0.90;;
64994;SDS011;51543;52.254;10.512;2022-07-11T13:08:32;0.90;;;0.77;;
64994;SDS011;51543;52.254;10.512;2022-07-11T13:11:28;1.17;;;0.85;;
64994;SDS011;51543;52.254;10.512;2022-07-11T13:13:56;0.95;;;0.80;;
64994;SDS011;51543;52.254;10.512;2022-07-11T13:16:23;1.08;;;0.80;;
64994;SDS011;51543;52.254;10.512;2022-07-11T13:18:48;1.45;;;0.70;;
64994;SDS011;51543;52.254;10.512;2022-07-11T13:21:14;0.80;;;0.80;;
64994;SDS011;51543;52.254;10.512;2022-07-11T13:23:39;0.63;;;0.63;;
64994;SDS011;51543;52.254;10.512;2022-07-11T13:26:05;0.60;;;0.60;;
64994;SDS011;51543;52.254;10.512;2022-07-11T13:28:31;1.20;;;1.00;;
64994;SDS011;51543;52.254;10.512;2022-07-11T13:30:56;0.88;;;0.80;;
64994;SDS011;51543;52.254;10.512;2022-07-11T13:33:22;1.33;;;0.80;;
64994;SDS011;51543;52.254;10.512;2022-07-11T13:35:48;0.82;;;0.82;;
64994;SDS011;51543;52.254;10.512;2022-07-11T13:38:14;2.15;;;0.80;;
64994;SDS011;51543;52.254;10.512;2022-07-11T13:40:40;1.20;;;1.10;;
64994;SDS011;51543;52.254;10.512;2022-07-11T13:43:06;0.77;;;0.77;;
64994;SDS011;51543;52.254;10.512;2022-07-11T13:45:31;1.95;;;1.13;;
64994;SDS011;51543;52.254;10.512;2022-07-11T13:47:57;0.93;;;0.93;;
64994;SDS011;51543;52.254;10.512;2022-07-11T13:50:25;1.35;;;0.80;;
64994;SDS011;51543;52.254;10.512;2022-07-11T13:52:51;1.55;;;0.75;;
64994;SDS011;51543;52.254;10.512;2022-07-11T13:55:16;0.77;;;0.77;;
64994;SDS011;51543;52.254;10.512;2022-07-11T13:57:42;0.85;;;0.70;;
64994;SDS011;51543;52.254;10.512;2022-07-11T14:00:07;0.93;;;0.93;;
64994;SDS011;51543;52.254;10.512;2022-07-11T14:02:33;1.67;;;1.27;;
64994;SDS011;51543;52.254;10.512;2022-07-11T14:04:58;0.77;;;0.77;;
64994;SDS011;51543;52.254;10.512;2022-07-11T14:07:24;0.70;;;0.70;;
64994;SDS011;51543;52.254;10.512;2022-07-11T14:09:49;1.00;;;1.00;;
64994;SDS011;51543;52.254;10.512;2022-07-11T14:12:14;1.10;;;1.00;;
64994;SDS011;51543;52.254;10.512;2022-07-11T14:14:40;0.80;;;0.80;;
64994;SDS011;51543;52.254;10.512;2022-07-11T14:17:05;0.90;;;0.90;;
64994;SDS011;51543;52.254;10.512;2022-07-11T14:19:30;1.23;;;0.90;;
64994;SDS011;51543;52.254;10.512;2022-07-11T14:22:02;0.80;;;0.80;;
64994;SDS011;51543;52.254;10.512;2022-07-11T14:24:27;2.30;;;0.90;;
64994;SDS011;51543;52.254;10.512;2022-07-11T14:26:53;0.90;;;0.90;;
64994;SDS011;51543;52.254;10.512;2022-07-11T14:29:18;0.70;;;0.70;;
64994;SDS011;51543;52.254;10.512;2022-07-11T14:31:44;0.75;;;0.75;;
64994;SDS011;51543;52.254;10.512;2022-07-11T14:34:09;0.82;;;0.82;;
64994;SDS011;51543;52.254;10.512;2022-07-11T14:36:35;0.90;;;0.90;;
64994;SDS011;51543;52.254;10.512;2022-07-11T14:39:00;0.85;;;0.85;;
64994;SDS011;51543;52.254;10.512;2022-07-11T14:41:25;0.98;;;0.85;;
64994;SDS011;51543;52.254;10.512;2022-07-11T14:43:51;0.55;;;0.55;;
64994;SDS011;51543;52.254;10.512;2022-07-11T14:46:16;0.75;;;0.75;;
64994;SDS011;51543;52.254;10.512;2022-07-11T14:48:42;0.88;;;0.88;;
64994;SDS011;51543;52.254;10.512;2022-07-11T14:51:08;1.33;;;0.80;;
64994;SDS011;51543;52.254;10.512;2022-07-11T14:53:34;0.60;;;0.60;;
64994;SDS011;51543;52.254;10.512;2022-07-11T14:55:59;0.98;;;0.90;;